createdAt,value
2023-02-06T11:24:23.658Z,0
2023-02-06T11:29:33.183Z,950
2023-02-06T11:34:42.066Z,953
2023-02-06T11:39:50.951Z,987
2023-02-06T11:44:59.840Z,994
2023-02-06T11:50:09.247Z,1005
2023-02-06T11:55:19.270Z,1010
2023-02-06T12:00:29.365Z,990
2023-02-06T12:05:39.470Z,984
2023-02-06T12:10:49.486Z,983
2023-02-06T12:15:59.388Z,979
2023-02-06T12:21:09.285Z,977
2023-02-06T12:26:19.176Z,973
2023-02-06T12:31:29.059Z,978
2023-02-06T12:36:38.936Z,979
2023-02-06T12:41:48.825Z,973
2023-02-06T12:46:59.234Z,975
2023-02-06T12:52:09.000Z,965
2023-02-06T12:57:19.011Z,964
2023-02-06T13:02:28.893Z,990
2023-02-06T13:07:38.787Z,1020
2023-02-06T13:12:49.176Z,1048
2023-02-06T13:17:59.056Z,1063
2023-02-06T13:23:08.941Z,1076
2023-02-06T13:28:18.000Z,1088
2023-02-06T13:33:28.729Z,1101
2023-02-06T13:38:38.610Z,1091
2023-02-06T13:43:48.502Z,1111
2023-02-06T13:48:58.397Z,1127
2023-02-06T13:54:08.789Z,1120
2023-02-06T13:59:18.681Z,1111
2023-02-06T14:04:28.555Z,1149
2023-02-06T14:09:38.464Z,1210
2023-02-06T14:14:48.350Z,1241
2023-02-06T14:19:58.228Z,1245
2023-02-06T14:25:08.615Z,1240
2023-02-06T14:30:18.501Z,1229
2023-02-06T14:35:28.388Z,1221
2023-02-06T14:40:38.775Z,1219
2023-02-06T14:45:48.682Z,1194
2023-02-06T14:50:58.559Z,1218
2023-02-06T14:56:08.461Z,1216
2023-02-06T15:01:18.347Z,1221
2023-02-06T15:06:28.225Z,1221
2023-02-06T15:11:38.619Z,1221
2023-02-06T15:16:48.518Z,1199
2023-02-06T15:21:58.403Z,1195
2023-02-06T15:27:08.788Z,1188
2023-02-06T15:32:18.674Z,1194
2023-02-06T15:37:28.572Z,1193
2023-02-06T15:42:38.457Z,1202
2023-02-06T15:47:48.343Z,1209
2023-02-06T15:52:58.238Z,1229
2023-02-06T15:58:08.629Z,1248
2023-02-06T16:03:18.519Z,1243
2023-02-06T16:08:28.403Z,1223
2023-02-06T16:13:38.801Z,1214
2023-02-06T16:18:48.692Z,1193
2023-02-06T16:23:58.578Z,1189
2023-02-06T16:29:08.472Z,1176
2023-02-06T16:34:18.362Z,1170
2023-02-06T16:39:28.236Z,1174
2023-02-06T16:44:38.629Z,1171
2023-02-06T16:49:48.524Z,1163
2023-02-06T16:54:58.416Z,1160
2023-02-06T17:00:08.301Z,1159
2023-02-06T17:05:18.183Z,1123
2023-02-06T17:10:28.706Z,1136
2023-02-06T17:15:38.815Z,1129
2023-02-06T17:20:48.910Z,1120
2023-02-06T17:25:58.925Z,1116
2023-02-06T17:31:08.823Z,1103
2023-02-06T17:36:18.718Z,1109
2023-02-06T17:41:28.606Z,1099
2023-02-06T17:46:38.484Z,1086
2023-02-06T17:51:48.383Z,1090
2023-02-06T17:56:58.262Z,1078
2023-02-06T18:02:08.660Z,1069
2023-02-06T18:07:18.670Z,1067
2023-02-06T18:12:28.769Z,1061
2023-02-06T18:17:38.874Z,1057
2023-02-06T18:22:48.897Z,1051
2023-02-06T18:27:58.796Z,1043
2023-02-06T18:33:08.669Z,918
2023-02-06T18:38:18.566Z,849
2023-02-06T18:43:28.450Z,932
2023-02-06T18:48:38.353Z,976
2023-02-06T18:53:48.245Z,971
2023-02-06T18:58:58.613Z,975
2023-02-06T19:04:08.512Z,985
2023-02-06T19:09:18.395Z,981
2023-02-06T19:14:28.412Z,983
2023-02-06T19:19:38.514Z,979
2023-02-06T19:24:48.623Z,977
